sensor_id;sensor_type;location;lat;lon;timestamp;pressure;altitude;pressure_sealevel;temperature;humidity
49178;BME280;35016;55.674;37.468;2023-02-08T00:00:32;101543.03;;;-5.61;67.27
49178;BME280;35016;55.674;37.468;2023-02-08T00:02:59;101550.34;;;-5.65;66.69
49178;BME280;35016;55.674;37.468;2023-02-08T00:05:26;101546.31;;;-5.70;67.14
49178;BME280;35016;55.674;37.468;2023-02-08T00:07:53;101537.66;;;-5.72;67.02
49178;BME280;35016;55.674;37.468;2023-02-08T00:10:20;101539.25;;;-5.70;66.95
49178;BME280;35016;55.674;37.468;2023-02-08T00:12:46;101549.81;;;-5.70;67.03
49178;BME280;35016;55.674;37.468;2023-02-08T00:15:13;101547.28;;;-5.71;66.92
49178;BME280;35016;55.674;37.468;2023-02-08T00:17:43;101540.41;;;-5.74;67.13
49178;BME280;35016;55.674;37.468;2023-02-08T00:20:10;101541.56;;;-5.78;67.06
49178;BME280;35016;55.674;37.468;2023-02-08T00:22:37;101530.78;;;-5.75;67.22
49178;BME280;35016;55.674;37.468;2023-02-08T00:25:05;101525.94;;;-5.68;67.25
49178;BME280;35016;55.674;37.468;2023-02-08T00:27:32;101522.97;;;-5.64;67.23
49178;BME280;35016;55.674;37.468;2023-02-08T00:29:58;101527.19;;;-5.61;67.26
49178;BME280;35016;55.674;37.468;2023-02-08T00:32:25;101535.97;;;-5.61;67.28
49178;BME280;35016;55.674;37.468;2023-02-08T00:34:52;101533.22;;;-5.59;67.42
49178;BME280;35016;55.674;37.468;2023-02-08T00:40:11;101519.16;;;-5.59;66.99
49178;BME280;35016;55.674;37.468;2023-02-08T00:42:38;101520.09;;;-5.61;67.43
49178;BME280;35016;55.674;37.468;2023-02-08T00:45:05;101528.03;;;-5.61;67.43
49178;BME280;35016;55.674;37.468;2023-02-08T00:47:54;101511.22;;;-5.59;67.38
49178;BME280;35016;55.674;37.468;2023-02-08T00:50:21;101500.56;;;-5.58;67.23
49178;BME280;35016;55.674;37.468;2023-02-08T00:52:47;101509.53;;;-5.61;67.49
49178;BME280;35016;55.674;37.468;2023-02-08T00:55:14;101520.22;;;-5.62;67.28
49178;BME280;35016;55.674;37.468;2023-02-08T00:57:41;101527.50;;;-5.66;67.05
49178;BME280;35016;55.674;37.468;2023-02-08T01:00:10;101511.03;;;-5.69;67.42
49178;BME280;35016;55.674;37.468;2023-02-08T01:02:56;101513.66;;;-5.69;67.38
49178;BME280;35016;55.674;37.468;2023-02-08T01:05:23;101518.84;;;-5.68;67.48
49178;BME280;35016;55.674;37.468;2023-02-08T01:07:54;101516.00;;;-5.65;67.57
49178;BME280;35016;55.674;37.468;2023-02-08T01:10:21;101513.88;;;-5.59;67.30
49178;BME280;35016;55.674;37.468;2023-02-08T01:12:49;101512.81;;;-5.57;67.71
49178;BME280;35016;55.674;37.468;2023-02-08T01:15:16;101533.00;;;-5.56;67.23
49178;BME280;35016;55.674;37.468;2023-02-08T01:17:43;101535.75;;;-5.57;66.93
49178;BME280;35016;55.674;37.468;2023-02-08T01:20:10;101522.75;;;-5.61;66.69
49178;BME280;35016;55.674;37.468;2023-02-08T01:22:37;101511.44;;;-5.63;66.85
49178;BME280;35016;55.674;37.468;2023-02-08T01:25:04;101512.41;;;-5.64;66.96
49178;BME280;35016;55.674;37.468;2023-02-08T01:27:31;101515.66;;;-5.60;66.99
49178;BME280;35016;55.674;37.468;2023-02-08T01:29:57;101512.81;;;-5.57;66.95
49178;BME280;35016;55.674;37.468;2023-02-08T01:32:24;101518.72;;;-5.53;66.95
49178;BME280;35016;55.674;37.468;2023-02-08T01:34:54;101513.22;;;-5.50;67.35
49178;BME280;35016;55.674;37.468;2023-02-08T01:37:23;101508.72;;;-5.48;66.93
49178;BME280;35016;55.674;37.468;2023-02-08T01:39:50;101517.66;;;-5.51;67.28
49178;BME280;35016;55.674;37.468;2023-02-08T01:42:19;101517.16;;;-5.56;66.71
49178;BME280;35016;55.674;37.468;2023-02-08T01:47:32;101518.41;;;-5.62;67.18
49178;BME280;35016;55.674;37.468;2023-02-08T01:49:59;101517.03;;;-5.67;66.96
49178;BME280;35016;55.674;37.468;2023-02-08T01:52:26;101519.16;;;-5.72;67.30
49178;BME280;35016;55.674;37.468;2023-02-08T01:54:59;101522.97;;;-5.76;67.19
49178;BME280;35016;55.674;37.468;2023-02-08T01:57:28;101524.94;;;-5.80;67.31
49178;BME280;35016;55.674;37.468;2023-02-08T02:00:39;101517.22;;;-5.83;67.28
49178;BME280;35016;55.674;37.468;2023-02-08T02:02:48;101531.50;;;-5.85;67.01
49178;BME280;35016;55.674;37.468;2023-02-08T02:05:19;101513.22;;;-5.88;67.08
49178;BME280;35016;55.674;37.468;2023-02-08T02:10:42;101517.16;;;-5.94;67.02
49178;BME280;35016;55.674;37.468;2023-02-08T02:13:12;101511.03;;;-5.95;67.09
49178;BME280;35016;55.674;37.468;2023-02-08T02:15:42;101506.59;;;-5.94;67.49
49178;BME280;35016;55.674;37.468;2023-02-08T02:18:09;101497.63;;;-5.91;67.16
49178;BME280;35016;55.674;37.468;2023-02-08T02:28:30;101520.50;;;-5.79;66.83
49178;BME280;35016;55.674;37.468;2023-02-08T02:52:48;101523.50;;;-5.97;67.34
49178;BME280;35016;55.674;37.468;2023-02-08T02:55:17;101517.38;;;-5.97;67.20
49178;BME280;35016;55.674;37.468;2023-02-08T02:57:46;101526.13;;;-5.97;67.21
49178;BME280;35016;55.674;37.468;2023-02-08T03:00:19;101520.00;;;-5.97;67.06
49178;BME280;35016;55.674;37.468;2023-02-08T03:02:50;101515.69;;;-5.98;67.12
49178;BME280;35016;55.674;37.468;2023-02-08T03:05:17;101516.41;;;-5.96;67.28
49178;BME280;35016;55.674;37.468;2023-02-08T03:12:54;101501.50;;;-5.84;67.24
49178;BME280;35016;55.674;37.468;2023-02-08T03:25:47;101492.22;;;-5.65;67.06
49178;BME280;35016;55.674;37.468;2023-02-08T03:28:21;101493.78;;;-5.62;67.12
49178;BME280;35016;55.674;37.468;2023-02-08T03:36:46;101475.28;;;-5.49;67.32
49178;BME280;35016;55.674;37.468;2023-02-08T03:38:42;101466.31;;;-5.47;66.85
49178;BME280;35016;55.674;37.468;2023-02-08T03:41:10;101465.88;;;-5.41;66.97
49178;BME280;35016;55.674;37.468;2023-02-08T03:43:39;101463.84;;;-5.37;67.06
49178;BME280;35016;55.674;37.468;2023-02-08T03:46:10;101458.84;;;-5.29;66.93
49178;BME280;35016;55.674;37.468;2023-02-08T03:48:45;101450.38;;;-5.21;67.34
49178;BME280;35016;55.674;37.468;2023-02-08T03:51:14;101452.94;;;-5.20;66.86
49178;BME280;35016;55.674;37.468;2023-02-08T03:53:43;101456.31;;;-5.18;66.91
49178;BME280;35016;55.674;37.468;2023-02-08T03:56:17;101452.59;;;-5.15;67.05
49178;BME280;35016;55.674;37.468;2023-02-08T03:58:57;101446.97;;;-5.11;66.89
49178;BME280;35016;55.674;37.468;2023-02-08T04:01:29;101449.28;;;-5.06;67.17
49178;BME280;35016;55.674;37.468;2023-02-08T04:03:57;101446.91;;;-4.98;67.26
49178;BME280;35016;55.674;37.468;2023-02-08T04:06:25;101442.13;;;-4.93;67.14
49178;BME280;35016;55.674;37.468;2023-02-08T04:08:52;101437.16;;;-4.85;67.15
49178;BME280;35016;55.674;37.468;2023-02-08T04:11:19;101427.19;;;-4.81;67.08
49178;BME280;35016;55.674;37.468;2023-02-08T04:13:46;101436.69;;;-4.79;67.16
49178;BME280;35016;55.674;37.468;2023-02-08T04:16:13;101434.66;;;-4.75;66.72
49178;BME280;35016;55.674;37.468;2023-02-08T04:18:40;101436.22;;;-4.73;67.30
49178;BME280;35016;55.674;37.468;2023-02-08T04:21:07;101442.88;;;-4.67;67.19
49178;BME280;35016;55.674;37.468;2023-02-08T04:23:34;101433.75;;;-4.63;66.71
49178;BME280;35016;55.674;37.468;2023-02-08T04:26:02;101438.94;;;-4.61;67.09
49178;BME280;35016;55.674;37.468;2023-02-08T04:28:32;101442.31;;;-4.59;67.09
49178;BME280;35016;55.674;37.468;2023-02-08T04:30:58;101430.66;;;-4.57;66.93
49178;BME280;35016;55.674;37.468;2023-02-08T04:33:25;101430.53;;;-4.55;67.46
49178;BME280;35016;55.674;37.468;2023-02-08T04:35:53;101431.28;;;-4.53;66.39
49178;BME280;35016;55.674;37.468;2023-02-08T04:38:24;101425.13;;;-4.54;67.13
49178;BME280;35016;55.674;37.468;2023-02-08T04:40:57;101431.16;;;-4.52;66.68
49178;BME280;35016;55.674;37.468;2023-02-08T04:43:23;101422.13;;;-4.49;67.02
49178;BME280;35016;55.674;37.468;2023-02-08T04:45:50;101425.50;;;-4.47;66.85
49178;BME280;35016;55.674;37.468;2023-02-08T04:48:18;101434.19;;;-4.45;67.58
49178;BME280;35016;55.674;37.468;2023-02-08T04:50:48;101422.63;;;-4.44;67.24
49178;BME280;35016;55.674;37.468;2023-02-08T04:53:16;101424.31;;;-4.43;67.39
49178;BME280;35016;55.674;37.468;2023-02-08T04:55:44;101420.72;;;-4.42;67.25
49178;BME280;35016;55.674;37.468;2023-02-08T04:58:11;101417.22;;;-4.43;66.84
49178;BME280;35016;55.674;37.468;2023-02-08T05:00:45;101416.03;;;-4.39;67.43
49178;BME280;35016;55.674;37.468;2023-02-08T05:03:19;101416.63;;;-4.35;67.36
49178;BME280;35016;55.674;37.468;2023-02-08T05:09:33;101412.47;;;-4.26;66.63
49178;BME280;35016;55.674;37.468;2023-02-08T05:12:04;101417.41;;;-4.22;66.96
49178;BME280;35016;55.674;37.468;2023-02-08T05:14:31;101415.47;;;-4.20;67.24
49178;BME280;35016;55.674;37.468;2023-02-08T05:16:57;101425.13;;;-4.19;66.89
49178;BME280;35016;55.674;37.468;2023-02-08T05:19:25;101411.88;;;-4.19;66.79
49178;BME280;35016;55.674;37.468;2023-02-08T05:21:52;101422.59;;;-4.20;66.73
49178;BME280;35016;55.674;37.468;2023-02-08T05:24:18;101411.16;;;-4.21;66.85
49178;BME280;35016;55.674;37.468;2023-02-08T05:26:45;101412.13;;;-4.22;66.92
49178;BME280;35016;55.674;37.468;2023-02-08T05:29:12;101400.78;;;-4.24;67.42
49178;BME280;35016;55.674;37.468;2023-02-08T05:31:39;101407.91;;;-4.24;66.91
49178;BME280;35016;55.674;37.468;2023-02-08T05:34:06;101412.69;;;-4.29;67.09
49178;BME280;35016;55.674;37.468;2023-02-08T05:36:33;101405.97;;;-4.33;67.55
49178;BME280;35016;55.674;37.468;2023-02-08T05:39:00;101430.09;;;-4.38;66.95
49178;BME280;35016;55.674;37.468;2023-02-08T05:41:27;101414.56;;;-4.43;67.13
49178;BME280;35016;55.674;37.468;2023-02-08T05:43:54;101420.84;;;-4.44;67.58
49178;BME280;35016;55.674;37.468;2023-02-08T05:46:20;101412.88;;;-4.44;67.09
49178;BME280;35016;55.674;37.468;2023-02-08T05:48:47;101420.94;;;-4.45;67.18
49178;BME280;35016;55.674;37.468;2023-02-08T05:51:14;101407.81;;;-4.47;67.06
49178;BME280;35016;55.674;37.468;2023-02-08T05:53:41;101412.16;;;-4.46;67.26
49178;BME280;35016;55.674;37.468;2023-02-08T05:56:09;101409.28;;;-4.43;66.92
49178;BME280;35016;55.674;37.468;2023-02-08T05:58:36;101411.47;;;-4.37;66.89
49178;BME280;35016;55.674;37.468;2023-02-08T06:01:10;101409.53;;;-4.34;67.40
49178;BME280;35016;55.674;37.468;2023-02-08T06:03:39;101404.25;;;-4.34;66.81
49178;BME280;35016;55.674;37.468;2023-02-08T06:06:07;101404.16;;;-4.33;67.03
49178;BME280;35016;55.674;37.468;2023-02-08T06:08:37;101398.84;;;-4.33;67.01
49178;BME280;35016;55.674;37.468;2023-02-08T06:11:04;101395.25;;;-4.32;67.29
49178;BME280;35016;55.674;37.468;2023-02-08T06:13:31;101394.16;;;-4.29;66.96
49178;BME280;35016;55.674;37.468;2023-02-08T06:15:58;101399.72;;;-4.21;67.29
49178;BME280;35016;55.674;37.468;2023-02-08T06:18:25;101410.78;;;-4.16;66.55
49178;BME280;35016;55.674;37.468;2023-02-08T06:20:53;101403.81;;;-4.17;66.80
49178;BME280;35016;55.674;37.468;2023-02-08T06:23:20;101402.97;;;-4.18;66.89
49178;BME280;35016;55.674;37.468;2023-02-08T06:25:47;101398.28;;;-4.14;66.89
49178;BME280;35016;55.674;37.468;2023-02-08T06:28:14;101400.69;;;-4.11;66.89
49178;BME280;35016;55.674;37.468;2023-02-08T06:30:41;101403.94;;;-4.08;66.88
49178;BME280;35016;55.674;37.468;2023-02-08T06:33:09;101406.25;;;-4.03;66.87
49178;BME280;35016;55.674;37.468;2023-02-08T06:35:44;101390.97;;;-3.99;67.19
49178;BME280;35016;55.674;37.468;2023-02-08T06:38:13;101394.34;;;-3.97;67.07
49178;BME280;35016;55.674;37.468;2023-02-08T06:40:40;101387.94;;;-3.95;66.64
49178;BME280;35016;55.674;37.468;2023-02-08T06:43:08;101384.81;;;-3.89;67.20
49178;BME280;35016;55.674;37.468;2023-02-08T06:45:35;101385.41;;;-3.85;67.36
49178;BME280;35016;55.674;37.468;2023-02-08T06:48:17;101383.63;;;-3.85;67.17
49178;BME280;35016;55.674;37.468;2023-02-08T06:50:44;101380.97;;;-3.85;66.80
49178;BME280;35016;55.674;37.468;2023-02-08T06:53:10;101371.22;;;-3.84;66.53
49178;BME280;35016;55.674;37.468;2023-02-08T06:55:47;101377.09;;;-3.81;67.10
49178;BME280;35016;55.674;37.468;2023-02-08T06:58:16;101382.16;;;-3.78;66.90
49178;BME280;35016;55.674;37.468;2023-02-08T07:00:43;101384.59;;;-3.75;67.11
49178;BME280;35016;55.674;37.468;2023-02-08T07:03:11;101375.81;;;-3.75;67.13
49178;BME280;35016;55.674;37.468;2023-02-08T07:05:38;101369.41;;;-3.72;67.20
49178;BME280;35016;55.674;37.468;2023-02-08T07:08:06;101374.34;;;-3.68;66.90
49178;BME280;35016;55.674;37.468;2023-02-08T07:10:33;101375.78;;;-3.64;66.65
49178;BME280;35016;55.674;37.468;2023-02-08T07:13:03;101372.16;;;-3.63;66.88
49178;BME280;35016;55.674;37.468;2023-02-08T07:15:30;101363.38;;;-3.63;66.93
49178;BME280;35016;55.674;37.468;2023-02-08T07:17:57;101373.13;;;-3.64;66.71
49178;BME280;35016;55.674;37.468;2023-02-08T07:20:23;101370.47;;;-3.64;67.12
49178;BME280;35016;55.674;37.468;2023-02-08T07:22:50;101375.91;;;-3.65;67.07
49178;BME280;35016;55.674;37.468;2023-02-08T07:25:19;101365.19;;;-3.64;66.85
49178;BME280;35016;55.674;37.468;2023-02-08T07:27:46;101377.94;;;-3.58;66.60
49178;BME280;35016;55.674;37.468;2023-02-08T07:30:16;101371.09;;;-3.60;67.32
49178;BME280;35016;55.674;37.468;2023-02-08T07:32:48;101367.47;;;-3.59;66.95
49178;BME280;35016;55.674;37.468;2023-02-08T07:35:17;101367.94;;;-3.54;66.85
49178;BME280;35016;55.674;37.468;2023-02-08T07:37:47;101365.88;;;-3.51;67.06
49178;BME280;35016;55.674;37.468;2023-02-08T07:40:15;101365.75;;;-3.49;67.21
49178;BME280;35016;55.674;37.468;2023-02-08T07:42:43;101360.31;;;-3.48;66.60
49178;BME280;35016;55.674;37.468;2023-02-08T07:45:20;101363.81;;;-3.47;66.81
49178;BME280;35016;55.674;37.468;2023-02-08T07:47:47;101364.69;;;-3.47;66.57
49178;BME280;35016;55.674;37.468;2023-02-08T07:50:15;101366.13;;;-3.42;66.50
49178;BME280;35016;55.674;37.468;2023-02-08T07:52:42;101364.78;;;-3.37;66.31
49178;BME280;35016;55.674;37.468;2023-02-08T07:55:12;101368.03;;;-3.33;66.30
49178;BME280;35016;55.674;37.468;2023-02-08T07:57:46;101360.19;;;-3.35;66.20
49178;BME280;35016;55.674;37.468;2023-02-08T08:00:14;101341.75;;;-3.36;66.54
49178;BME280;35016;55.674;37.468;2023-02-08T08:02:41;101354.19;;;-3.37;67.16
49178;BME280;35016;55.674;37.468;2023-02-08T08:05:09;101349.59;;;-3.35;67.37
49178;BME280;35016;55.674;37.468;2023-02-08T08:07:40;101352.84;;;-3.31;67.19
49178;BME280;35016;55.674;37.468;2023-02-08T08:10:07;101355.25;;;-3.28;66.34
49178;BME280;35016;55.674;37.468;2023-02-08T08:12:34;101347.03;;;-3.25;66.52
49178;BME280;35016;55.674;37.468;2023-02-08T08:15:01;101344.13;;;-3.22;66.85
49178;BME280;35016;55.674;37.468;2023-02-08T08:17:29;101347.38;;;-3.19;66.80
49178;BME280;35016;55.674;37.468;2023-02-08T08:19:56;101344.84;;;-3.20;66.39
49178;BME280;35016;55.674;37.468;2023-02-08T08:22:22;101347.75;;;-3.23;66.40
49178;BME280;35016;55.674;37.468;2023-02-08T08:24:49;101326.91;;;-3.28;66.24
49178;BME280;35016;55.674;37.468;2023-02-08T08:27:21;101325.59;;;-3.33;66.57
49178;BME280;35016;55.674;37.468;2023-02-08T08:29:55;101314.03;;;-3.32;66.27
49178;BME280;35016;55.674;37.468;2023-02-08T08:32:22;101331.50;;;-3.30;66.46
49178;BME280;35016;55.674;37.468;2023-02-08T08:34:48;101312.09;;;-3.30;66.11
49178;BME280;35016;55.674;37.468;2023-02-08T08:37:44;101311.97;;;-3.29;66.56
49178;BME280;35016;55.674;37.468;2023-02-08T08:40:10;101316.88;;;-3.24;66.38
49178;BME280;35016;55.674;37.468;2023-02-08T08:42:41;101322.41;;;-3.16;67.01
49178;BME280;35016;55.674;37.468;2023-02-08T08:45:09;101308.78;;;-3.12;66.71
49178;BME280;35016;55.674;37.468;2023-02-08T08:47:35;101314.47;;;-3.16;66.50
49178;BME280;35016;55.674;37.468;2023-02-08T08:50:02;101318.44;;;-3.22;66.27
49178;BME280;35016;55.674;37.468;2023-02-08T08:52:39;101305.69;;;-3.28;66.43
49178;BME280;35016;55.674;37.468;2023-02-08T08:55:08;101311.81;;;-3.27;66.54
49178;BME280;35016;55.674;37.468;2023-02-08T09:01:54;101302.03;;;-3.16;66.84
49178;BME280;35016;55.674;37.468;2023-02-08T09:05:17;101302.81;;;-3.04;66.73
49178;BME280;35016;55.674;37.468;2023-02-08T09:08:06;101292.84;;;-2.91;66.26
49178;BME280;35016;55.674;37.468;2023-02-08T09:11:23;101286.41;;;-2.77;66.29
49178;BME280;35016;55.674;37.468;2023-02-08T09:13:50;101289.81;;;-2.65;65.97
49178;BME280;35016;55.674;37.468;2023-02-08T09:20:42;101270.69;;;-2.38;65.98
49178;BME280;35016;55.674;37.468;2023-02-08T09:23:34;101257.66;;;-2.21;66.34
49178;BME280;35016;55.674;37.468;2023-02-08T09:26:37;101266.56;;;-1.91;66.17
49178;BME280;35016;55.674;37.468;2023-02-08T09:29:07;101256.38;;;-1.76;66.03
49178;BME280;35016;55.674;37.468;2023-02-08T09:31:35;101258.09;;;-1.66;66.08
49178;BME280;35016;55.674;37.468;2023-02-08T09:34:04;101265.53;;;-1.60;65.99
49178;BME280;35016;55.674;37.468;2023-02-08T09:36:33;101261.75;;;-1.57;65.38
49178;BME280;35016;55.674;37.468;2023-02-08T09:39:02;101262.59;;;-1.57;65.46
49178;BME280;35016;55.674;37.468;2023-02-08T09:42:12;101265.38;;;-1.58;65.05
49178;BME280;35016;55.674;37.468;2023-02-08T09:46:53;101268.03;;;-1.68;65.88
49178;BME280;35016;55.674;37.468;2023-02-08T09:49:39;101264.50;;;-1.78;65.71
49178;BME280;35016;55.674;37.468;2023-02-08T09:52:12;101254.13;;;-1.91;65.81
49178;BME280;35016;55.674;37.468;2023-02-08T09:54:42;101255.09;;;-1.92;65.75
49178;BME280;35016;55.674;37.468;2023-02-08T09:57:12;101249.63;;;-1.90;65.93
49178;BME280;35016;55.674;37.468;2023-02-08T09:59:40;101242.22;;;-1.96;66.06
49178;BME280;35016;55.674;37.468;2023-02-08T10:04:54;101253.25;;;-2.01;66.47
49178;BME280;35016;55.674;37.468;2023-02-08T10:07:26;101266.97;;;-1.96;66.15
49178;BME280;35016;55.674;37.468;2023-02-08T10:09:54;101254.41;;;-1.84;66.25
49178;BME280;35016;55.674;37.468;2023-02-08T10:20:39;101226.63;;;-1.41;64.70
49178;BME280;35016;55.674;37.468;2023-02-08T10:36:52;101195.66;;;-1.04;64.80
49178;BME280;35016;55.674;37.468;2023-02-08T10:39:29;101185.28;;;-0.97;64.79
49178;BME280;35016;55.674;37.468;2023-02-08T10:42:01;101188.47;;;-0.84;64.65
49178;BME280;35016;55.674;37.468;2023-02-08T10:49:56;101191.13;;;-0.37;64.62
49178;BME280;35016;55.674;37.468;2023-02-08T10:52:25;101183.50;;;-0.32;64.46
49178;BME280;35016;55.674;37.468;2023-02-08T10:54:53;101178.63;;;-0.37;64.29
49178;BME280;35016;55.674;37.468;2023-02-08T10:57:21;101201.13;;;-0.49;63.37
49178;BME280;35016;55.674;37.468;2023-02-08T11:00:00;101184.34;;;-0.69;63.11
49178;BME280;35016;55.674;37.468;2023-02-08T11:02:32;101197.16;;;-0.91;64.14
49178;BME280;35016;55.674;37.468;2023-02-08T11:07:33;101202.53;;;-1.30;65.10
49178;BME280;35016;55.674;37.468;2023-02-08T11:12:39;101220.16;;;-1.58;65.32
49178;BME280;35016;55.674;37.468;2023-02-08T11:15:20;101208.13;;;-1.62;65.64
49178;BME280;35016;55.674;37.468;2023-02-08T11:17:51;101203.09;;;-1.65;65.54
49178;BME280;35016;55.674;37.468;2023-02-08T11:20:24;101203.50;;;-1.70;65.53
49178;BME280;35016;55.674;37.468;2023-02-08T11:23:05;101197.06;;;-1.67;65.32
49178;BME280;35016;55.674;37.468;2023-02-08T11:25:42;101199.88;;;-1.59;65.42
49178;BME280;35016;55.674;37.468;2023-02-08T11:28:23;101212.75;;;-1.45;65.53
49178;BME280;35016;55.674;37.468;2023-02-08T11:30:59;101197.50;;;-1.33;64.94
49178;BME280;35016;55.674;37.468;2023-02-08T11:33:28;101187.00;;;-1.25;65.01
49178;BME280;35016;55.674;37.468;2023-02-08T11:35:56;101190.91;;;-1.10;65.18
49178;BME280;35016;55.674;37.468;2023-02-08T11:38:24;101181.34;;;-0.93;64.71
49178;BME280;35016;55.674;37.468;2023-02-08T11:40:56;101183.81;;;-0.72;64.82
49178;BME280;35016;55.674;37.468;2023-02-08T11:43:29;101164.13;;;-0.62;64.51
49178;BME280;35016;55.674;37.468;2023-02-08T11:45:57;101163.44;;;-0.54;64.33
49178;BME280;35016;55.674;37.468;2023-02-08T11:48:33;101161.84;;;-0.47;64.12
49178;BME280;35016;55.674;37.468;2023-02-08T11:51:01;101194.50;;;-0.45;64.12
49178;BME280;35016;55.674;37.468;2023-02-08T11:53:32;101149.50;;;-0.48;64.42
49178;BME280;35016;55.674;37.468;2023-02-08T11:58:28;101156.81;;;-0.50;64.82
49178;BME280;35016;55.674;37.468;2023-02-08T12:01:00;101158.94;;;-0.53;64.35
49178;BME280;35016;55.674;37.468;2023-02-08T12:03:31;101142.41;;;-0.57;64.85
49178;BME280;35016;55.674;37.468;2023-02-08T12:17:10;101139.66;;;-0.75;64.79
49178;BME280;35016;55.674;37.468;2023-02-08T12:22:12;101120.63;;;-0.89;64.64
49178;BME280;35016;55.674;37.468;2023-02-08T12:27:38;101119.03;;;-1.10;64.74
49178;BME280;35016;55.674;37.468;2023-02-08T12:38:18;101114.91;;;-0.95;64.71
49178;BME280;35016;55.674;37.468;2023-02-08T12:43:54;101102.28;;;-0.93;64.68
49178;BME280;35016;55.674;37.468;2023-02-08T12:56:53;101103.53;;;-1.34;64.29
49178;BME280;35016;55.674;37.468;2023-02-08T12:59:30;101081.56;;;-1.36;64.71
49178;BME280;35016;55.674;37.468;2023-02-08T13:02:00;101088.56;;;-1.35;64.94
49178;BME280;35016;55.674;37.468;2023-02-08T13:04:36;101084.91;;;-1.34;65.08
49178;BME280;35016;55.674;37.468;2023-02-08T13:07:11;101087.00;;;-1.28;65.00
49178;BME280;35016;55.674;37.468;2023-02-08T13:09:59;101084.34;;;-1.28;65.06
49178;BME280;35016;55.674;37.468;2023-02-08T13:12:34;101070.34;;;-1.30;64.83
49178;BME280;35016;55.674;37.468;2023-02-08T13:17:53;101073.56;;;-1.36;65.06
49178;BME280;35016;55.674;37.468;2023-02-08T13:20:30;101082.41;;;-1.35;65.01
49178;BME280;35016;55.674;37.468;2023-02-08T13:23:01;101079.75;;;-1.35;64.88
49178;BME280;35016;55.674;37.468;2023-02-08T13:25:33;101088.84;;;-1.38;65.06
49178;BME280;35016;55.674;37.468;2023-02-08T13:28:05;101080.47;;;-1.43;64.97
49178;BME280;35016;55.674;37.468;2023-02-08T13:30:35;101070.22;;;-1.47;64.98
49178;BME280;35016;55.674;37.468;2023-02-08T13:33:18;101075.00;;;-1.51;65.03
49178;BME280;35016;55.674;37.468;2023-02-08T13:38:59;101049.53;;;-1.63;64.87
49178;BME280;35016;55.674;37.468;2023-02-08T13:41:28;101042.97;;;-1.69;64.97
49178;BME280;35016;55.674;37.468;2023-02-08T13:44:02;101055.59;;;-1.71;64.84
49178;BME280;35016;55.674;37.468;2023-02-08T13:46:52;101052.94;;;-1.71;65.16
49178;BME280;35016;55.674;37.468;2023-02-08T13:52:05;101043.66;;;-1.76;64.93
49178;BME280;35016;55.674;37.468;2023-02-08T13:55:34;101038.50;;;-1.78;64.92
49178;BME280;35016;55.674;37.468;2023-02-08T13:57:49;101053.19;;;-1.83;64.84
49178;BME280;35016;55.674;37.468;2023-02-08T14:00:22;101046.50;;;-1.88;64.72
49178;BME280;35016;55.674;37.468;2023-02-08T14:03:02;101044.13;;;-1.91;64.87
49178;BME280;35016;55.674;37.468;2023-02-08T14:09:07;101070.69;;;-1.91;64.85
49178;BME280;35016;55.674;37.468;2023-02-08T14:11:55;101058.81;;;-1.96;64.80
49178;BME280;35016;55.674;37.468;2023-02-08T14:14:29;101068.06;;;-2.00;64.99
49178;BME280;35016;55.674;37.468;2023-02-08T14:17:27;101062.97;;;-2.03;64.78
49178;BME280;35016;55.674;37.468;2023-02-08T14:20:01;101059.63;;;-2.05;64.95
49178;BME280;35016;55.674;37.468;2023-02-08T14:22:37;101060.59;;;-2.06;64.83
49178;BME280;35016;55.674;37.468;2023-02-08T14:25:14;101046.34;;;-2.05;65.04
49178;BME280;35016;55.674;37.468;2023-02-08T14:27:53;101041.16;;;-2.07;65.10
49178;BME280;35016;55.674;37.468;2023-02-08T14:30:26;101049.41;;;-2.10;65.03
49178;BME280;35016;55.674;37.468;2023-02-08T14:35:38;101050.25;;;-2.09;65.00
49178;BME280;35016;55.674;37.468;2023-02-08T14:41:00;101055.56;;;-2.09;65.25
49178;BME280;35016;55.674;37.468;2023-02-08T14:43:41;101057.41;;;-2.10;65.18
49178;BME280;35016;55.674;37.468;2023-02-08T14:48:54;101066.34;;;-2.11;65.24
49178;BME280;35016;55.674;37.468;2023-02-08T14:51:30;101062.00;;;-2.12;65.04
49178;BME280;35016;55.674;37.468;2023-02-08T14:58:01;101052.50;;;-2.14;65.04
49178;BME280;35016;55.674;37.468;2023-02-08T15:00:37;101040.91;;;-2.13;65.15
49178;BME280;35016;55.674;37.468;2023-02-08T15:03:15;101047.59;;;-2.09;65.14
49178;BME280;35016;55.674;37.468;2023-02-08T15:06:06;101054.31;;;-2.05;65.25
49178;BME280;35016;55.674;37.468;2023-02-08T15:08:40;101033.06;;;-2.05;64.96
49178;BME280;35016;55.674;37.468;2023-02-08T15:11:29;101047.03;;;-2.03;65.16
49178;BME280;35016;55.674;37.468;2023-02-08T15:14:05;101036.28;;;-2.02;65.05
49178;BME280;35016;55.674;37.468;2023-02-08T15:20:14;101055.59;;;-2.00;64.97
49178;BME280;35016;55.674;37.468;2023-02-08T15:23:31;101052.09;;;-2.00;65.07
49178;BME280;35016;55.674;37.468;2023-02-08T15:26:28;101050.13;;;-1.98;65.28
49178;BME280;35016;55.674;37.468;2023-02-08T15:29:41;101046.34;;;-1.96;65.00
49178;BME280;35016;55.674;37.468;2023-02-08T15:32:11;101050.69;;;-1.95;65.23
49178;BME280;35016;55.674;37.468;2023-02-08T15:34:41;101038.09;;;-1.93;65.13
49178;BME280;35016;55.674;37.468;2023-02-08T15:37:16;101039.78;;;-1.92;65.15
49178;BME280;35016;55.674;37.468;2023-02-08T15:39:56;101037.97;;;-1.91;64.98
49178;BME280;35016;55.674;37.468;2023-02-08T15:42:24;101039.63;;;-1.90;65.05
49178;BME280;35016;55.674;37.468;2023-02-08T15:44:53;101034.31;;;-1.90;65.33
49178;BME280;35016;55.674;37.468;2023-02-08T15:52:57;101033.47;;;-1.91;65.53
49178;BME280;35016;55.674;37.468;2023-02-08T15:55:34;101028.16;;;-1.91;65.46
49178;BME280;35016;55.674;37.468;2023-02-08T15:58:07;101019.34;;;-1.91;65.40
49178;BME280;35016;55.674;37.468;2023-02-08T16:00:45;101022.00;;;-1.91;65.42
49178;BME280;35016;55.674;37.468;2023-02-08T16:03:22;101026.34;;;-1.90;65.19
49178;BME280;35016;55.674;37.468;2023-02-08T16:06:10;101029.16;;;-1.92;65.23